Terminal Aerodrome Forecast
Issued by NWS

Home | Current Version | Previous Version | Text Only | Print | Product List | Glossary On
Versions: 1 2 3 4 5 6 7 8 9 10 11 12 13 14 15
000
FTUS43 KLSX 032340
TAFSUS
TAF
KSUS 032340Z 0400/0424 28005KT P6SM SCT100
     FM040200 24005KT P6SM SKC
     FM040800 24011KT P6SM VCSH BKN060
     FM041200 29013G21KT P6SM SCT080
     FM041500 33016G25KT P6SM FEW060=

USA.gov is the U.S. government's official web portal to all federal, state and local government web resources and services.